sensor_id;sensor_type;location;lat;lon;timestamp;temperature;humidity
5017;DHT22;2527;50.892;16.706;2023-10-13T00:02:07;17.40;99.90
5017;DHT22;2527;50.892;16.706;2023-10-13T00:04:33;16.50;99.90
5017;DHT22;2527;50.892;16.706;2023-10-13T00:07:04;17.90;99.90
5017;DHT22;2527;50.892;16.706;2023-10-13T00:09:34;17.80;99.90
5017;DHT22;2527;50.892;16.706;2023-10-13T00:12:07;17.80;99.90
5017;DHT22;2527;50.892;16.706;2023-10-13T00:14:39;17.80;99.90
5017;DHT22;2527;50.892;16.706;2023-10-13T00:17:07;17.80;99.90
5017;DHT22;2527;50.892;16.706;2023-10-13T00:19:45;17.80;99.90
5017;DHT22;2527;50.892;16.706;2023-10-13T00:22:14;17.80;99.90
5017;DHT22;2527;50.892;16.706;2023-10-13T00:24:44;17.80;99.90
5017;DHT22;2527;50.892;16.706;2023-10-13T00:27:20;17.70;99.90
5017;DHT22;2527;50.892;16.706;2023-10-13T00:30:00;17.70;99.90
5017;DHT22;2527;50.892;16.706;2023-10-13T00:32:41;17.70;99.90
5017;DHT22;2527;50.892;16.706;2023-10-13T00:35:13;17.70;99.90
5017;DHT22;2527;50.892;16.706;2023-10-13T00:37:40;17.70;99.90
5017;DHT22;2527;50.892;16.706;2023-10-13T00:40:13;17.70;99.90
5017;DHT22;2527;50.892;16.706;2023-10-13T00:42:57;17.70;99.90
5017;DHT22;2527;50.892;16.706;2023-10-13T00:45:43;17.70;99.90
5017;DHT22;2527;50.892;16.706;2023-10-13T00:48:10;17.70;99.90
5017;DHT22;2527;50.892;16.706;2023-10-13T00:50:38;17.70;99.90
5017;DHT22;2527;50.892;16.706;2023-10-13T00:53:04;17.70;99.90
5017;DHT22;2527;50.892;16.706;2023-10-13T00:55:30;17.70;99.90
5017;DHT22;2527;50.892;16.706;2023-10-13T00:57:59;17.70;99.90
5017;DHT22;2527;50.892;16.706;2023-10-13T01:00:32;17.70;99.90
5017;DHT22;2527;50.892;16.706;2023-10-13T01:02:58;17.70;99.90
5017;DHT22;2527;50.892;16.706;2023-10-13T01:05:33;17.80;99.90
5017;DHT22;2527;50.892;16.706;2023-10-13T01:08:00;17.80;99.90
5017;DHT22;2527;50.892;16.706;2023-10-13T01:10:28;17.80;99.90
5017;DHT22;2527;50.892;16.706;2023-10-13T01:12:58;17.80;99.90
5017;DHT22;2527;50.892;16.706;2023-10-13T01:15:28;17.80;99.90
5017;DHT22;2527;50.892;16.706;2023-10-13T01:18:08;17.90;99.90
5017;DHT22;2527;50.892;16.706;2023-10-13T01:20:37;17.80;99.90
5017;DHT22;2527;50.892;16.706;2023-10-13T01:23:17;17.90;99.90
5017;DHT22;2527;50.892;16.706;2023-10-13T01:25:50;17.90;99.90
5017;DHT22;2527;50.892;16.706;2023-10-13T01:28:16;17.90;99.90
5017;DHT22;2527;50.892;16.706;2023-10-13T01:30:43;17.90;99.90
5017;DHT22;2527;50.892;16.706;2023-10-13T01:33:16;17.90;99.90
5017;DHT22;2527;50.892;16.706;2023-10-13T01:35:42;17.90;99.90
5017;DHT22;2527;50.892;16.706;2023-10-13T01:38:13;17.90;99.90
5017;DHT22;2527;50.892;16.706;2023-10-13T01:40:39;17.90;99.90
5017;DHT22;2527;50.892;16.706;2023-10-13T01:43:05;17.90;99.90
5017;DHT22;2527;50.892;16.706;2023-10-13T01:45:38;17.90;99.90
5017;DHT22;2527;50.892;16.706;2023-10-13T01:48:15;17.90;99.90
5017;DHT22;2527;50.892;16.706;2023-10-13T01:50:47;17.90;99.90
5017;DHT22;2527;50.892;16.706;2023-10-13T01:53:25;17.90;99.90
5017;DHT22;2527;50.892;16.706;2023-10-13T01:55:54;17.90;99.90
5017;DHT22;2527;50.892;16.706;2023-10-13T01:58:22;17.90;99.90
5017;DHT22;2527;50.892;16.706;2023-10-13T02:00:49;17.80;99.90
5017;DHT22;2527;50.892;16.706;2023-10-13T02:03:14;17.80;99.90
5017;DHT22;2527;50.892;16.706;2023-10-13T02:05:44;17.80;99.90
5017;DHT22;2527;50.892;16.706;2023-10-13T02:08:17;17.80;99.90
5017;DHT22;2527;50.892;16.706;2023-10-13T02:10:56;17.80;99.90
5017;DHT22;2527;50.892;16.706;2023-10-13T02:13:23;17.80;99.90
5017;DHT22;2527;50.892;16.706;2023-10-13T02:15:53;17.80;99.90
5017;DHT22;2527;50.892;16.706;2023-10-13T02:18:21;17.80;99.90
5017;DHT22;2527;50.892;16.706;2023-10-13T02:20:52;17.80;99.90
5017;DHT22;2527;50.892;16.706;2023-10-13T02:23:24;17.80;99.90
5017;DHT22;2527;50.892;16.706;2023-10-13T02:25:50;17.80;99.90
5017;DHT22;2527;50.892;16.706;2023-10-13T02:28:27;17.80;99.90
5017;DHT22;2527;50.892;16.706;2023-10-13T02:30:53;17.80;99.90
5017;DHT22;2527;50.892;16.706;2023-10-13T02:33:19;17.80;99.90
5017;DHT22;2527;50.892;16.706;2023-10-13T02:35:58;17.80;99.90
5017;DHT22;2527;50.892;16.706;2023-10-13T02:38:25;17.80;99.90
5017;DHT22;2527;50.892;16.706;2023-10-13T02:41:16;17.80;99.90
5017;DHT22;2527;50.892;16.706;2023-10-13T02:43:52;17.80;99.90
5017;DHT22;2527;50.892;16.706;2023-10-13T02:46:21;17.80;99.90
5017;DHT22;2527;50.892;16.706;2023-10-13T02:48:47;17.90;99.90
5017;DHT22;2527;50.892;16.706;2023-10-13T02:51:27;17.90;99.90
5017;DHT22;2527;50.892;16.706;2023-10-13T02:54:02;17.90;99.90
5017;DHT22;2527;50.892;16.706;2023-10-13T02:56:28;17.90;99.90
5017;DHT22;2527;50.892;16.706;2023-10-13T02:58:55;17.90;99.90
5017;DHT22;2527;50.892;16.706;2023-10-13T03:01:31;17.90;99.90
5017;DHT22;2527;50.892;16.706;2023-10-13T03:04:00;16.90;99.90
5017;DHT22;2527;50.892;16.706;2023-10-13T03:06:26;17.90;99.90
5017;DHT22;2527;50.892;16.706;2023-10-13T03:09:07;17.90;99.90
5017;DHT22;2527;50.892;16.706;2023-10-13T03:11:47;17.90;99.90
5017;DHT22;2527;50.892;16.706;2023-10-13T03:14:23;17.90;99.90
5017;DHT22;2527;50.892;16.706;2023-10-13T03:16:58;17.90;99.90
5017;DHT22;2527;50.892;16.706;2023-10-13T03:19:43;17.90;99.90
5017;DHT22;2527;50.892;16.706;2023-10-13T03:22:15;17.90;99.90
5017;DHT22;2527;50.892;16.706;2023-10-13T03:24:42;17.90;99.90
5017;DHT22;2527;50.892;16.706;2023-10-13T03:27:18;17.90;99.90
5017;DHT22;2527;50.892;16.706;2023-10-13T03:29:49;17.90;99.90
5017;DHT22;2527;50.892;16.706;2023-10-13T03:32:21;17.90;99.90
5017;DHT22;2527;50.892;16.706;2023-10-13T03:34:47;17.90;99.90
5017;DHT22;2527;50.892;16.706;2023-10-13T03:37:20;17.90;99.90
5017;DHT22;2527;50.892;16.706;2023-10-13T03:40:08;17.90;99.90
5017;DHT22;2527;50.892;16.706;2023-10-13T03:42:55;17.90;99.90
5017;DHT22;2527;50.892;16.706;2023-10-13T03:45:31;17.90;99.90
5017;DHT22;2527;50.892;16.706;2023-10-13T03:48:10;17.90;99.90
5017;DHT22;2527;50.892;16.706;2023-10-13T03:50:37;17.90;99.90
5017;DHT22;2527;50.892;16.706;2023-10-13T03:53:04;17.90;99.90
5017;DHT22;2527;50.892;16.706;2023-10-13T03:55:31;17.90;99.90
5017;DHT22;2527;50.892;16.706;2023-10-13T03:58:01;17.90;99.90
5017;DHT22;2527;50.892;16.706;2023-10-13T04:00:29;17.90;99.90
5017;DHT22;2527;50.892;16.706;2023-10-13T04:02:56;17.90;99.90
5017;DHT22;2527;50.892;16.706;2023-10-13T04:05:41;17.90;99.90
5017;DHT22;2527;50.892;16.706;2023-10-13T04:08:26;17.90;99.90
5017;DHT22;2527;50.892;16.706;2023-10-13T04:10:56;17.90;99.90
5017;DHT22;2527;50.892;16.706;2023-10-13T04:13:21;17.90;99.90
5017;DHT22;2527;50.892;16.706;2023-10-13T04:16:07;17.90;99.90
5017;DHT22;2527;50.892;16.706;2023-10-13T04:18:40;17.90;99.90
5017;DHT22;2527;50.892;16.706;2023-10-13T04:21:32;17.90;99.90
5017;DHT22;2527;50.892;16.706;2023-10-13T04:24:21;17.90;99.90
5017;DHT22;2527;50.892;16.706;2023-10-13T04:27:16;17.90;99.90
5017;DHT22;2527;50.892;16.706;2023-10-13T04:30:04;17.90;99.90
5017;DHT22;2527;50.892;16.706;2023-10-13T04:32:33;17.90;99.90
5017;DHT22;2527;50.892;16.706;2023-10-13T04:35:04;17.90;99.90
5017;DHT22;2527;50.892;16.706;2023-10-13T04:37:39;17.90;99.90
5017;DHT22;2527;50.892;16.706;2023-10-13T04:40:41;17.80;99.90
5017;DHT22;2527;50.892;16.706;2023-10-13T04:43:24;17.80;99.90
5017;DHT22;2527;50.892;16.706;2023-10-13T04:45:59;17.90;99.90
5017;DHT22;2527;50.892;16.706;2023-10-13T04:48:40;17.90;99.90
5017;DHT22;2527;50.892;16.706;2023-10-13T04:51:12;17.90;99.90
5017;DHT22;2527;50.892;16.706;2023-10-13T04:53:59;17.90;99.90
5017;DHT22;2527;50.892;16.706;2023-10-13T04:56:26;17.90;99.90
5017;DHT22;2527;50.892;16.706;2023-10-13T04:59:07;17.90;99.90
5017;DHT22;2527;50.892;16.706;2023-10-13T05:02:01;17.90;99.90
5017;DHT22;2527;50.892;16.706;2023-10-13T05:04:46;17.90;99.90
5017;DHT22;2527;50.892;16.706;2023-10-13T05:07:37;17.90;99.90
5017;DHT22;2527;50.892;16.706;2023-10-13T05:10:22;17.90;99.90
5017;DHT22;2527;50.892;16.706;2023-10-13T05:13:07;17.90;99.90
5017;DHT22;2527;50.892;16.706;2023-10-13T05:15:52;17.90;99.90
5017;DHT22;2527;50.892;16.706;2023-10-13T05:18:37;17.90;99.90
5017;DHT22;2527;50.892;16.706;2023-10-13T05:21:23;17.90;99.90
5017;DHT22;2527;50.892;16.706;2023-10-13T05:24:07;17.90;99.90
5017;DHT22;2527;50.892;16.706;2023-10-13T05:26:52;17.90;99.90
5017;DHT22;2527;50.892;16.706;2023-10-13T05:29:41;17.90;99.90
5017;DHT22;2527;50.892;16.706;2023-10-13T05:32:25;17.90;99.90
5017;DHT22;2527;50.892;16.706;2023-10-13T05:35:11;17.90;99.90
5017;DHT22;2527;50.892;16.706;2023-10-13T05:37:55;17.90;99.90
5017;DHT22;2527;50.892;16.706;2023-10-13T05:40:39;17.90;99.90
5017;DHT22;2527;50.892;16.706;2023-10-13T05:43:24;17.90;99.90
5017;DHT22;2527;50.892;16.706;2023-10-13T05:46:08;17.90;99.90
5017;DHT22;2527;50.892;16.706;2023-10-13T05:48:54;17.90;99.90
5017;DHT22;2527;50.892;16.706;2023-10-13T05:54:12;17.90;99.90
5017;DHT22;2527;50.892;16.706;2023-10-13T05:59:26;17.90;99.90
5017;DHT22;2527;50.892;16.706;2023-10-13T06:02:10;17.90;99.90
5017;DHT22;2527;50.892;16.706;2023-10-13T06:04:55;17.80;99.90
5017;DHT22;2527;50.892;16.706;2023-10-13T06:07:40;17.80;99.90
5017;DHT22;2527;50.892;16.706;2023-10-13T06:10:24;17.80;99.90
5017;DHT22;2527;50.892;16.706;2023-10-13T06:13:09;17.80;99.90
5017;DHT22;2527;50.892;16.706;2023-10-13T06:15:54;17.90;99.90
5017;DHT22;2527;50.892;16.706;2023-10-13T06:18:38;18.10;99.90
5017;DHT22;2527;50.892;16.706;2023-10-13T06:21:22;18.20;99.90
5017;DHT22;2527;50.892;16.706;2023-10-13T06:24:07;18.40;99.90
5017;DHT22;2527;50.892;16.706;2023-10-13T06:26:51;18.50;99.90
5017;DHT22;2527;50.892;16.706;2023-10-13T06:29:36;18.70;99.90
5017;DHT22;2527;50.892;16.706;2023-10-13T06:32:01;18.80;99.90
5017;DHT22;2527;50.892;16.706;2023-10-13T06:34:38;19.00;99.90
5017;DHT22;2527;50.892;16.706;2023-10-13T06:37:19;20.20;99.90
5017;DHT22;2527;50.892;16.706;2023-10-13T06:40:02;19.20;99.90
5017;DHT22;2527;50.892;16.706;2023-10-13T06:42:32;19.40;99.90
5017;DHT22;2527;50.892;16.706;2023-10-13T06:45:00;19.50;99.90
5017;DHT22;2527;50.892;16.706;2023-10-13T06:47:36;20.00;99.90
5017;DHT22;2527;50.892;16.706;2023-10-13T06:50:14;19.70;99.90
5017;DHT22;2527;50.892;16.706;2023-10-13T06:52:45;19.70;99.90
5017;DHT22;2527;50.892;16.706;2023-10-13T06:55:15;19.80;99.90
5017;DHT22;2527;50.892;16.706;2023-10-13T06:57:49;19.80;99.90
5017;DHT22;2527;50.892;16.706;2023-10-13T07:00:16;19.90;99.90
5017;DHT22;2527;50.892;16.706;2023-10-13T07:02:54;20.00;99.90
5017;DHT22;2527;50.892;16.706;2023-10-13T07:05:30;20.10;99.90
5017;DHT22;2527;50.892;16.706;2023-10-13T07:07:58;20.30;99.90
5017;DHT22;2527;50.892;16.706;2023-10-13T07:10:24;20.40;99.90
5017;DHT22;2527;50.892;16.706;2023-10-13T07:12:55;20.50;99.90
5017;DHT22;2527;50.892;16.706;2023-10-13T07:15:26;20.70;99.90
5017;DHT22;2527;50.892;16.706;2023-10-13T07:17:54;20.80;99.90
5017;DHT22;2527;50.892;16.706;2023-10-13T07:20:25;20.90;99.90
5017;DHT22;2527;50.892;16.706;2023-10-13T07:22:54;20.90;99.90
5017;DHT22;2527;50.892;16.706;2023-10-13T07:25:28;21.00;99.90
5017;DHT22;2527;50.892;16.706;2023-10-13T07:28:00;21.10;99.90
5017;DHT22;2527;50.892;16.706;2023-10-13T07:30:26;21.10;99.90
5017;DHT22;2527;50.892;16.706;2023-10-13T07:32:53;21.20;99.90
5017;DHT22;2527;50.892;16.706;2023-10-13T07:35:23;21.30;99.90
5017;DHT22;2527;50.892;16.706;2023-10-13T07:37:50;21.30;99.90
5017;DHT22;2527;50.892;16.706;2023-10-13T07:40:20;21.40;99.90
5017;DHT22;2527;50.892;16.706;2023-10-13T07:42:48;21.40;99.90
5017;DHT22;2527;50.892;16.706;2023-10-13T07:45:15;21.40;99.90
5017;DHT22;2527;50.892;16.706;2023-10-13T07:47:50;21.40;99.90
5017;DHT22;2527;50.892;16.706;2023-10-13T07:50:16;21.50;99.90
5017;DHT22;2527;50.892;16.706;2023-10-13T07:52:51;21.50;99.90
5017;DHT22;2527;50.892;16.706;2023-10-13T07:55:33;21.50;99.90
5017;DHT22;2527;50.892;16.706;2023-10-13T07:58:04;21.50;99.90
5017;DHT22;2527;50.892;16.706;2023-10-13T08:00:33;21.50;99.90
5017;DHT22;2527;50.892;16.706;2023-10-13T08:03:10;21.40;99.90
5017;DHT22;2527;50.892;16.706;2023-10-13T08:05:42;21.30;99.90
5017;DHT22;2527;50.892;16.706;2023-10-13T08:08:27;21.20;99.90
5017;DHT22;2527;50.892;16.706;2023-10-13T08:11:11;21.00;99.90
5017;DHT22;2527;50.892;16.706;2023-10-13T08:13:51;20.90;99.90
5017;DHT22;2527;50.892;16.706;2023-10-13T08:16:22;20.70;99.90
5017;DHT22;2527;50.892;16.706;2023-10-13T08:18:51;20.60;99.90
5017;DHT22;2527;50.892;16.706;2023-10-13T08:21:20;20.50;99.90
5017;DHT22;2527;50.892;16.706;2023-10-13T08:23:49;20.50;99.90
5017;DHT22;2527;50.892;16.706;2023-10-13T08:26:25;20.40;99.90
5017;DHT22;2527;50.892;16.706;2023-10-13T08:29:09;20.30;99.90
5017;DHT22;2527;50.892;16.706;2023-10-13T08:31:45;20.30;99.90
5017;DHT22;2527;50.892;16.706;2023-10-13T08:34:33;20.30;99.90
5017;DHT22;2527;50.892;16.706;2023-10-13T08:37:19;20.20;99.90
5017;DHT22;2527;50.892;16.706;2023-10-13T08:39:48;20.20;99.90
5017;DHT22;2527;50.892;16.706;2023-10-13T08:42:44;20.20;99.90
5017;DHT22;2527;50.892;16.706;2023-10-13T08:45:11;20.20;99.90
5017;DHT22;2527;50.892;16.706;2023-10-13T08:48:07;20.30;99.90
5017;DHT22;2527;50.892;16.706;2023-10-13T08:50:43;20.50;99.90
5017;DHT22;2527;50.892;16.706;2023-10-13T08:53:25;20.60;99.90
5017;DHT22;2527;50.892;16.706;2023-10-13T08:58:57;20.90;99.90
5017;DHT22;2527;50.892;16.706;2023-10-13T09:01:30;21.10;99.90
5017;DHT22;2527;50.892;16.706;2023-10-13T09:04:14;21.20;99.90
5017;DHT22;2527;50.892;16.706;2023-10-13T09:07:05;21.30;99.90
5017;DHT22;2527;50.892;16.706;2023-10-13T09:09:32;21.30;99.90
5017;DHT22;2527;50.892;16.706;2023-10-13T09:14:52;21.40;99.90
5017;DHT22;2527;50.892;16.706;2023-10-13T09:17:24;21.40;99.90
5017;DHT22;2527;50.892;16.706;2023-10-13T09:20:07;21.40;99.90
5017;DHT22;2527;50.892;16.706;2023-10-13T09:23:14;21.40;99.90
5017;DHT22;2527;50.892;16.706;2023-10-13T09:25:49;21.40;99.90
5017;DHT22;2527;50.892;16.706;2023-10-13T09:28:23;21.50;99.90
5017;DHT22;2527;50.892;16.706;2023-10-13T09:30:53;21.60;99.90
5017;DHT22;2527;50.892;16.706;2023-10-13T09:33:22;21.60;99.90
5017;DHT22;2527;50.892;16.706;2023-10-13T09:35:54;21.70;99.90
5017;DHT22;2527;50.892;16.706;2023-10-13T09:38:20;21.80;99.90
5017;DHT22;2527;50.892;16.706;2023-10-13T09:40:49;21.90;99.90
5017;DHT22;2527;50.892;16.706;2023-10-13T09:43:29;21.90;99.90
5017;DHT22;2527;50.892;16.706;2023-10-13T09:45:58;21.90;99.90
5017;DHT22;2527;50.892;16.706;2023-10-13T09:48:34;21.90;99.90
5017;DHT22;2527;50.892;16.706;2023-10-13T09:51:03;21.90;99.90
5017;DHT22;2527;50.892;16.706;2023-10-13T09:53:32;21.90;99.90
5017;DHT22;2527;50.892;16.706;2023-10-13T09:58:51;21.90;99.90
5017;DHT22;2527;50.892;16.706;2023-10-13T10:01:31;21.90;99.90
5017;DHT22;2527;50.892;16.706;2023-10-13T10:04:09;21.90;99.90
5017;DHT22;2527;50.892;16.706;2023-10-13T10:06:38;22.00;99.90
5017;DHT22;2527;50.892;16.706;2023-10-13T10:09:12;21.90;99.90
5017;DHT22;2527;50.892;16.706;2023-10-13T10:14:24;22.00;99.90
5017;DHT22;2527;50.892;16.706;2023-10-13T10:16:59;22.00;99.90
5017;DHT22;2527;50.892;16.706;2023-10-13T10:19:33;22.00;99.90
5017;DHT22;2527;50.892;16.706;2023-10-13T10:22:04;21.80;99.90
5017;DHT22;2527;50.892;16.706;2023-10-13T10:24:42;22.00;99.90
5017;DHT22;2527;50.892;16.706;2023-10-13T10:27:09;22.00;99.90
5017;DHT22;2527;50.892;16.706;2023-10-13T10:29:53;22.00;99.90
5017;DHT22;2527;50.892;16.706;2023-10-13T10:32:19;22.00;99.90
5017;DHT22;2527;50.892;16.706;2023-10-13T10:34:45;22.10;99.90
5017;DHT22;2527;50.892;16.706;2023-10-13T10:37:10;22.10;99.90
5017;DHT22;2527;50.892;16.706;2023-10-13T10:39:37;22.10;99.90
5017;DHT22;2527;50.892;16.706;2023-10-13T10:42:14;22.10;99.90
5017;DHT22;2527;50.892;16.706;2023-10-13T10:44:51;22.10;99.90
5017;DHT22;2527;50.892;16.706;2023-10-13T10:47:20;22.10;99.90
5017;DHT22;2527;50.892;16.706;2023-10-13T10:50:02;22.00;99.90
5017;DHT22;2527;50.892;16.706;2023-10-13T10:52:45;22.00;99.90
5017;DHT22;2527;50.892;16.706;2023-10-13T10:55:12;22.00;99.90
5017;DHT22;2527;50.892;16.706;2023-10-13T10:57:45;22.00;99.90
5017;DHT22;2527;50.892;16.706;2023-10-13T11:00:20;22.00;99.90
5017;DHT22;2527;50.892;16.706;2023-10-13T11:02:54;22.00;99.90
5017;DHT22;2527;50.892;16.706;2023-10-13T11:05:20;22.00;99.90
5017;DHT22;2527;50.892;16.706;2023-10-13T11:07:46;22.10;99.90
5017;DHT22;2527;50.892;16.706;2023-10-13T11:10:19;22.10;99.90
5017;DHT22;2527;50.892;16.706;2023-10-13T11:12:55;22.10;99.90
5017;DHT22;2527;50.892;16.706;2023-10-13T11:15:21;22.10;99.90
5017;DHT22;2527;50.892;16.706;2023-10-13T11:17:59;22.10;99.90
5017;DHT22;2527;50.892;16.706;2023-10-13T11:20:24;22.10;99.90
5017;DHT22;2527;50.892;16.706;2023-10-13T11:23:12;22.10;99.90
5017;DHT22;2527;50.892;16.706;2023-10-13T11:25:38;22.10;99.90
5017;DHT22;2527;50.892;16.706;2023-10-13T11:28:13;22.00;99.90
5017;DHT22;2527;50.892;16.706;2023-10-13T11:30:43;22.00;99.90
5017;DHT22;2527;50.892;16.706;2023-10-13T11:33:11;22.00;99.90
5017;DHT22;2527;50.892;16.706;2023-10-13T11:35:37;21.90;99.90
5017;DHT22;2527;50.892;16.706;2023-10-13T11:38:26;21.80;99.90
5017;DHT22;2527;50.892;16.706;2023-10-13T11:43:40;21.70;99.90
5017;DHT22;2527;50.892;16.706;2023-10-13T11:46:15;21.60;99.90
5017;DHT22;2527;50.892;16.706;2023-10-13T11:48:41;21.50;99.90
5017;DHT22;2527;50.892;16.706;2023-10-13T11:51:08;21.50;99.90
5017;DHT22;2527;50.892;16.706;2023-10-13T11:56:01;21.50;99.90
5017;DHT22;2527;50.892;16.706;2023-10-13T11:58:26;21.50;99.90
5017;DHT22;2527;50.892;16.706;2023-10-13T12:00:54;21.40;99.90
5017;DHT22;2527;50.892;16.706;2023-10-13T12:03:43;21.40;99.90
5017;DHT22;2527;50.892;16.706;2023-10-13T12:06:28;21.40;99.90
5017;DHT22;2527;50.892;16.706;2023-10-13T12:09:10;21.30;99.90
5017;DHT22;2527;50.892;16.706;2023-10-13T12:11:42;21.30;99.90
5017;DHT22;2527;50.892;16.706;2023-10-13T12:14:10;21.30;99.90
5017;DHT22;2527;50.892;16.706;2023-10-13T12:16:48;21.80;99.90
5017;DHT22;2527;50.892;16.706;2023-10-13T12:19:22;21.30;99.90
5017;DHT22;2527;50.892;16.706;2023-10-13T12:21:55;21.20;99.90
5017;DHT22;2527;50.892;16.706;2023-10-13T12:24:21;21.10;99.90
5017;DHT22;2527;50.892;16.706;2023-10-13T12:26:56;21.10;99.90
5017;DHT22;2527;50.892;16.706;2023-10-13T12:29:23;21.10;99.90
5017;DHT22;2527;50.892;16.706;2023-10-13T12:31:53;21.00;99.90
5017;DHT22;2527;50.892;16.706;2023-10-13T12:34:37;21.00;99.90
5017;DHT22;2527;50.892;16.706;2023-10-13T12:37:21;21.00;99.90
5017;DHT22;2527;50.892;16.706;2023-10-13T12:40:07;21.00;99.90
5017;DHT22;2527;50.892;16.706;2023-10-13T12:42:52;20.90;99.90
5017;DHT22;2527;50.892;16.706;2023-10-13T12:45:43;20.90;99.90
5017;DHT22;2527;50.892;16.706;2023-10-13T12:48:28;20.90;99.90
5017;DHT22;2527;50.892;16.706;2023-10-13T12:51:13;21.00;99.90
5017;DHT22;2527;50.892;16.706;2023-10-13T12:53:57;21.00;99.90
5017;DHT22;2527;50.892;16.706;2023-10-13T12:56:39;21.00;99.90
5017;DHT22;2527;50.892;16.706;2023-10-13T12:59:09;21.00;99.90
5017;DHT22;2527;50.892;16.706;2023-10-13T13:01:39;21.00;99.90
5017;DHT22;2527;50.892;16.706;2023-10-13T13:04:11;21.00;99.90
5017;DHT22;2527;50.892;16.706;2023-10-13T13:06:51;21.00;99.90
5017;DHT22;2527;50.892;16.706;2023-10-13T13:09:19;21.10;99.90
5017;DHT22;2527;50.892;16.706;2023-10-13T13:11:55;21.10;99.90
5017;DHT22;2527;50.892;16.706;2023-10-13T13:14:24;21.10;99.90
5017;DHT22;2527;50.892;16.706;2023-10-13T13:16:57;21.10;99.90
5017;DHT22;2527;50.892;16.706;2023-10-13T13:22:02;21.20;99.90
5017;DHT22;2527;50.892;16.706;2023-10-13T13:24:41;21.20;99.90
5017;DHT22;2527;50.892;16.706;2023-10-13T13:27:12;21.20;99.90
5017;DHT22;2527;50.892;16.706;2023-10-13T13:29:43;21.20;99.90
5017;DHT22;2527;50.892;16.706;2023-10-13T13:32:10;21.20;99.90
5017;DHT22;2527;50.892;16.706;2023-10-13T13:34:49;21.20;99.90
5017;DHT22;2527;50.892;16.706;2023-10-13T13:37:34;21.20;99.90
5017;DHT22;2527;50.892;16.706;2023-10-13T13:40:05;21.10;99.90
5017;DHT22;2527;50.892;16.706;2023-10-13T13:42:44;21.20;99.90
5017;DHT22;2527;50.892;16.706;2023-10-13T13:45:12;21.20;99.90
5017;DHT22;2527;50.892;16.706;2023-10-13T13:47:49;21.20;99.90
5017;DHT22;2527;50.892;16.706;2023-10-13T13:50:22;21.20;99.90
5017;DHT22;2527;50.892;16.706;2023-10-13T13:52:56;21.20;99.90
5017;DHT22;2527;50.892;16.706;2023-10-13T13:55:22;21.20;99.90
5017;DHT22;2527;50.892;16.706;2023-10-13T13:57:49;21.20;99.90
5017;DHT22;2527;50.892;16.706;2023-10-13T14:00:16;21.20;99.90
5017;DHT22;2527;50.892;16.706;2023-10-13T14:02:44;21.20;99.90
5017;DHT22;2527;50.892;16.706;2023-10-13T14:05:14;21.20;99.90
5017;DHT22;2527;50.892;16.706;2023-10-13T14:07:44;21.20;99.90
5017;DHT22;2527;50.892;16.706;2023-10-13T14:10:16;21.20;99.90
5017;DHT22;2527;50.892;16.706;2023-10-13T14:13:00;21.20;99.90
5017;DHT22;2527;50.892;16.706;2023-10-13T14:15:38;21.20;99.90
5017;DHT22;2527;50.892;16.706;2023-10-13T14:18:10;21.20;99.90
5017;DHT22;2527;50.892;16.706;2023-10-13T14:20:40;21.20;99.90
5017;DHT22;2527;50.892;16.706;2023-10-13T14:23:08;21.20;99.90
5017;DHT22;2527;50.892;16.706;2023-10-13T14:25:37;21.20;99.90
5017;DHT22;2527;50.892;16.706;2023-10-13T14:28:06;21.20;99.90
5017;DHT22;2527;50.892;16.706;2023-10-13T14:30:32;21.20;99.90
5017;DHT22;2527;50.892;16.706;2023-10-13T14:32:58;21.20;99.90
5017;DHT22;2527;50.892;16.706;2023-10-13T14:35:24;21.20;99.90
5017;DHT22;2527;50.892;16.706;2023-10-13T14:37:51;21.20;99.90
5017;DHT22;2527;50.892;16.706;2023-10-13T14:40:17;21.20;99.90
5017;DHT22;2527;50.892;16.706;2023-10-13T14:42:47;21.20;99.90
5017;DHT22;2527;50.892;16.706;2023-10-13T14:45:14;21.20;99.90
5017;DHT22;2527;50.892;16.706;2023-10-13T14:47:42;21.20;99.90
5017;DHT22;2527;50.892;16.706;2023-10-13T14:50:07;21.20;99.90
5017;DHT22;2527;50.892;16.706;2023-10-13T14:52:39;21.20;99.90
5017;DHT22;2527;50.892;16.706;2023-10-13T14:55:05;21.20;99.90
5017;DHT22;2527;50.892;16.706;2023-10-13T14:57:44;21.20;99.90
5017;DHT22;2527;50.892;16.706;2023-10-13T15:00:11;21.20;99.90
5017;DHT22;2527;50.892;16.706;2023-10-13T15:02:39;21.20;99.90
5017;DHT22;2527;50.892;16.706;2023-10-13T15:05:04;21.20;99.90
5017;DHT22;2527;50.892;16.706;2023-10-13T15:07:31;21.20;99.90
5017;DHT22;2527;50.892;16.706;2023-10-13T15:09:57;21.20;99.90
5017;DHT22;2527;50.892;16.706;2023-10-13T15:12:23;21.20;99.90
5017;DHT22;2527;50.892;16.706;2023-10-13T15:14:48;21.20;99.90
5017;DHT22;2527;50.892;16.706;2023-10-13T15:17:14;21.20;99.90
5017;DHT22;2527;50.892;16.706;2023-10-13T15:19:41;21.20;99.90
5017;DHT22;2527;50.892;16.706;2023-10-13T15:22:08;21.20;99.90
5017;DHT22;2527;50.892;16.706;2023-10-13T15:24:42;21.20;99.90
5017;DHT22;2527;50.892;16.706;2023-10-13T15:27:25;21.20;99.90
5017;DHT22;2527;50.892;16.706;2023-10-13T15:29:54;21.20;99.90
5017;DHT22;2527;50.892;16.706;2023-10-13T15:32:20;21.20;99.90
5017;DHT22;2527;50.892;16.706;2023-10-13T15:35:05;21.20;99.90
5017;DHT22;2527;50.892;16.706;2023-10-13T15:37:30;21.30;99.90
5017;DHT22;2527;50.892;16.706;2023-10-13T15:39:56;21.30;99.90
5017;DHT22;2527;50.892;16.706;2023-10-13T15:42:23;21.30;99.90
5017;DHT22;2527;50.892;16.706;2023-10-13T15:44:48;21.30;99.90
5017;DHT22;2527;50.892;16.706;2023-10-13T15:47:15;21.30;99.90
5017;DHT22;2527;50.892;16.706;2023-10-13T15:49:42;21.30;99.90
5017;DHT22;2527;50.892;16.706;2023-10-13T15:52:08;21.30;99.90
5017;DHT22;2527;50.892;16.706;2023-10-13T15:54:35;21.30;99.90
5017;DHT22;2527;50.892;16.706;2023-10-13T15:57:00;21.30;99.90
5017;DHT22;2527;50.892;16.706;2023-10-13T15:59:26;21.30;99.90
5017;DHT22;2527;50.892;16.706;2023-10-13T16:01:52;21.30;99.90
5017;DHT22;2527;50.892;16.706;2023-10-13T16:04:23;21.30;99.90
5017;DHT22;2527;50.892;16.706;2023-10-13T16:06:49;21.30;99.90
5017;DHT22;2527;50.892;16.706;2023-10-13T16:09:17;21.30;99.90
5017;DHT22;2527;50.892;16.706;2023-10-13T16:11:49;21.20;99.90
5017;DHT22;2527;50.892;16.706;2023-10-13T16:14:15;21.30;99.90
5017;DHT22;2527;50.892;16.706;2023-10-13T16:16:43;21.20;99.90
5017;DHT22;2527;50.892;16.706;2023-10-13T16:19:13;21.20;99.90
5017;DHT22;2527;50.892;16.706;2023-10-13T16:21:39;21.20;99.90
5017;DHT22;2527;50.892;16.706;2023-10-13T16:24:05;21.20;99.90
5017;DHT22;2527;50.892;16.706;2023-10-13T16:26:31;21.20;99.90
5017;DHT22;2527;50.892;16.706;2023-10-13T16:28:57;21.20;99.90
5017;DHT22;2527;50.892;16.706;2023-10-13T16:31:24;21.20;99.90
5017;DHT22;2527;50.892;16.706;2023-10-13T16:33:56;21.20;99.90
5017;DHT22;2527;50.892;16.706;2023-10-13T16:36:24;21.20;99.90
5017;DHT22;2527;50.892;16.706;2023-10-13T16:38:50;21.20;99.90
5017;DHT22;2527;50.892;16.706;2023-10-13T16:41:15;21.20;99.90
5017;DHT22;2527;50.892;16.706;2023-10-13T16:43:41;21.20;99.90
5017;DHT22;2527;50.892;16.706;2023-10-13T16:46:12;19.90;99.90
5017;DHT22;2527;50.892;16.706;2023-10-13T16:48:38;21.20;99.90
5017;DHT22;2527;50.892;16.706;2023-10-13T16:51:04;21.20;99.90